Terminal Aerodrome Forecast
Issued by NWS Sioux Falls, SD

Home | Current Version | Previous Version | Text Only | Print | Product List | Glossary Off
Versions: 1 2 3 4 5 6 7 8 9 10 11 12 13 14 15

727
FTUS43 KFSD 211723 AAB
TAFFSD
TAF AMD
KFSD 211723Z 2117/2218 03012KT P6SM OVC120
     FM220000 03015G24KT P6SM BKN060
     FM220300 02017G26KT 4SM -SN BLSN OVC030
     FM220600 02018G30KT 3SM -SN OVC025
     FM221000 01021G29KT 1SM -SN BLSN OVC015
     FM221500 36020G30KT 1 1/2SM -SN BLSN OVC010=

USA.gov is the U.S. government's official web portal to all federal, state and local government web resources and services.